METAR Data
IDs: Format: Raw Decoded Include TAF

Data at: 1336 UTC 14 Dec 2019

METAR for:KFSW (Fort Madison Muni, IA, US)
Text:KFSW 141335Z AUTO 32011G19KT 10SM OVC013 M02/M04 A2985 RMK AO2
Temperature: -2.0°C ( 28°F)
Dewpoint: -4.0°C ( 25°F) [RH = 86%]
Pressure (altimeter):29.85 inches Hg (1010.9 mb)
Winds:from the NW (320 degrees) at 13 MPH (11 knots; 5.7 m/s) gusting to 22 MPH (19 knots; 9.8 m/s)
Visibility:10 or more sm (16+ km)
Ceiling:1300 feet AGL
Clouds: overcast cloud deck at 1300 feet AGL
QC Flag:automated observation with no human augmentation